createdAt,value
2016-03-10T00:00:28.528Z,8.19
2016-03-10T00:01:28.532Z,8.23
2016-03-10T00:02:28.566Z,8.18
2016-03-10T00:03:28.600Z,8.24
2016-03-10T00:04:28.586Z,8.13
2016-03-10T00:05:28.620Z,8.19
2016-03-10T00:06:28.629Z,8.24
2016-03-10T00:07:28.648Z,8.24
2016-03-10T00:08:28.666Z,8.24
2016-03-10T00:09:28.684Z,8.15
2016-03-10T00:10:28.703Z,8.16
2016-03-10T00:11:28.705Z,8.13
2016-03-10T00:12:28.786Z,8.16
2016-03-10T00:13:28.741Z,8.23
2016-03-10T00:14:28.775Z,8.2
2016-03-10T00:15:28.794Z,8.16
2016-03-10T00:16:28.641Z,8.16
2016-03-10T00:17:28.815Z,8.2
2016-03-10T00:18:28.834Z,8.24
2016-03-10T00:19:28.836Z,8.2
2016-03-10T00:20:28.870Z,8.18
2016-03-10T00:21:28.872Z,8.2
2016-03-10T00:22:28.891Z,8.19
2016-03-10T00:23:28.909Z,8.24
2016-03-10T00:24:28.928Z,8.23
2016-03-10T00:25:28.946Z,8.19
2016-03-10T00:26:28.965Z,8.23
2016-03-10T00:27:29.029Z,8.23
2016-03-10T00:28:29.001Z,8.26
2016-03-10T00:29:29.004Z,8.2
2016-03-10T00:30:29.131Z,8.18
2016-03-10T00:31:28.890Z,8.18
2016-03-10T00:32:29.068Z,8.2
2016-03-10T00:33:29.071Z,8.12
2016-03-10T00:34:29.089Z,8.15
2016-03-10T00:35:29.123Z,8.13
2016-03-10T00:36:29.126Z,8.13
2016-03-10T00:37:29.161Z,8.16
2016-03-10T00:38:29.154Z,8.18
2016-03-10T00:39:29.187Z,8.2
2016-03-10T00:40:29.206Z,8.24
2016-03-10T00:41:29.208Z,8.13
2016-03-10T00:42:29.259Z,8.15
2016-03-10T00:43:29.229Z,8.2
2016-03-10T00:44:29.264Z,8.18
2016-03-10T00:45:29.313Z,8.18
2016-03-10T00:46:29.301Z,8.15
2016-03-10T00:47:29.318Z,8.16
2016-03-10T00:48:29.337Z,8.16
2016-03-10T00:49:29.355Z,8.16
2016-03-10T00:50:29.389Z,8.19
2016-03-10T00:51:29.376Z,8.23
2016-03-10T00:52:29.411Z,8.18
2016-03-10T00:53:29.414Z,8.13
2016-03-10T00:54:29.431Z,8.19
2016-03-10T00:55:29.464Z,8.15
2016-03-10T00:56:29.467Z,8.2
2016-03-10T00:57:29.502Z,8.12
2016-03-10T00:58:29.488Z,8.15
2016-03-10T00:59:29.523Z,8.13
2016-03-10T01:00:29.541Z,8.13
2016-03-10T01:01:29.560Z,8.15
2016-03-10T01:02:29.593Z,8.16
2016-03-10T01:03:29.611Z,8.18
2016-03-10T01:04:29.598Z,8.16
2016-03-10T01:05:29.633Z,8.19
2016-03-10T01:06:29.619Z,8.19
2016-03-10T01:07:29.701Z,8.23
2016-03-10T01:08:29.687Z,8.19
2016-03-10T01:09:29.674Z,8.16
2016-03-10T01:10:29.693Z,8.18
2016-03-10T01:11:29.712Z,8.26
2016-03-10T01:12:29.745Z,8.24
2016-03-10T01:13:29.748Z,8.24
2016-03-10T01:14:29.766Z,8.23
2016-03-10T01:15:29.784Z,8.19
2016-03-10T01:16:29.787Z,8.2
2016-03-10T01:17:29.805Z,8.27
2016-03-10T01:18:29.839Z,8.23
2016-03-10T01:19:29.842Z,8.27
2016-03-10T01:20:29.876Z,8.19
2016-03-10T01:21:29.878Z,8.24
2016-03-10T01:22:29.897Z,8.2
2016-03-10T01:23:29.914Z,8.24
2016-03-10T01:24:29.934Z,8.24
2016-03-10T01:25:29.952Z,8.15
2016-03-10T01:26:29.970Z,8.26
2016-03-10T01:27:29.989Z,8.19
2016-03-10T01:28:29.992Z,8.26
2016-03-10T01:29:30.025Z,8.26
2016-03-10T01:30:30.028Z,8.26
2016-03-10T01:31:30.061Z,8.19
2016-03-10T01:32:30.064Z,8.2
2016-03-10T01:33:30.083Z,8.23
2016-03-10T01:34:30.117Z,8.19
2016-03-10T01:35:30.104Z,8.26
2016-03-10T01:36:30.137Z,8.19
2016-03-10T01:37:30.140Z,8.24
2016-03-10T01:38:30.205Z,8.2
2016-03-10T01:39:30.177Z,8.24
2016-03-10T01:40:30.195Z,8.23
2016-03-10T01:41:30.230Z,8.28
2016-03-10T01:42:30.232Z,8.18
2016-03-10T01:43:30.251Z,8.23
2016-03-10T01:44:30.253Z,8.23
2016-03-10T01:45:30.287Z,8.12
2016-03-10T01:46:30.320Z,8.18
2016-03-10T01:47:30.324Z,8.23
2016-03-10T01:48:30.342Z,8.19
2016-03-10T01:49:30.345Z,8.18
2016-03-10T01:50:30.362Z,8.2
2016-03-10T01:51:30.397Z,8.16
2016-03-10T01:52:30.400Z,8.16
2016-03-10T01:53:30.418Z,8.16
2016-03-10T01:54:30.420Z,8.19
2016-03-10T01:55:30.455Z,8.16
2016-03-10T01:56:30.489Z,8.12
2016-03-10T01:57:30.475Z,8.1
2016-03-10T01:58:30.494Z,8.18
2016-03-10T01:59:30.543Z,8.16
2016-03-10T02:00:30.530Z,8.18
2016-03-10T02:01:30.549Z,8.18
2016-03-10T02:02:30.566Z,8.18
2016-03-10T02:03:30.585Z,8.12
2016-03-10T02:04:30.619Z,8.15
2016-03-10T02:05:30.621Z,8.16
2016-03-10T02:06:30.641Z,8.16
2016-03-10T02:07:30.643Z,8.18
2016-03-10T02:08:30.661Z,8.1
2016-03-10T02:09:30.696Z,8.1
2016-03-10T02:10:30.699Z,8.2
2016-03-10T02:11:30.732Z,8.06
2016-03-10T02:12:30.751Z,8.1
2016-03-10T02:13:30.753Z,8.08
2016-03-10T02:14:30.771Z,8.03
2016-03-10T02:15:30.790Z,8.05
2016-03-10T02:16:30.807Z,8.01
2016-03-10T02:17:30.810Z,8.13
2016-03-10T02:18:30.844Z,8.1
2016-03-10T02:19:30.847Z,8.13
2016-03-10T02:20:30.865Z,8.05
2016-03-10T02:21:30.900Z,8.09
2016-03-10T02:22:30.917Z,8.15
2016-03-10T02:23:30.921Z,8.09
2016-03-10T02:24:30.939Z,8.06
2016-03-10T02:25:30.973Z,8.12
2016-03-10T02:26:30.991Z,8.13
2016-03-10T02:27:30.994Z,8.1
2016-03-10T02:28:30.996Z,8.09
2016-03-10T02:29:31.031Z,8.09
2016-03-10T02:30:31.033Z,8.05
2016-03-10T02:31:31.052Z,8.01
2016-03-10T02:32:31.069Z,8.06
2016-03-10T02:33:31.088Z,8.08
2016-03-10T02:34:31.122Z,8.05
2016-03-10T02:35:31.108Z,8.1
2016-03-10T02:36:31.158Z,8.03
2016-03-10T02:37:31.146Z,8.03
2016-03-10T02:38:31.164Z,8.03
2016-03-10T02:39:31.198Z,8.06
2016-03-10T02:40:31.201Z,8.06
2016-03-10T02:41:31.218Z,7.95
2016-03-10T02:42:31.237Z,8
2016-03-10T02:43:31.240Z,8.06
2016-03-10T02:44:31.290Z,8.1
2016-03-10T02:45:31.276Z,8.03
2016-03-10T02:46:31.310Z,8.06
2016-03-10T02:47:31.312Z,8.03
2016-03-10T02:48:31.332Z,8.03
2016-03-10T02:49:31.365Z,8.01
2016-03-10T02:50:31.353Z,8.03
2016-03-10T02:51:31.401Z,7.98
2016-03-10T02:52:31.390Z,8.01
2016-03-10T02:53:31.470Z,8.03
2016-03-10T02:54:31.442Z,7.95
2016-03-10T02:55:31.491Z,7.97
2016-03-10T02:56:31.478Z,8.05
2016-03-10T02:57:31.481Z,7.97
2016-03-10T02:58:31.500Z,8.06
2016-03-10T02:59:31.517Z,8
2016-03-10T03:00:31.519Z,7.94
2016-03-10T03:01:31.553Z,8.03
2016-03-10T03:02:31.556Z,7.94
2016-03-10T03:03:31.591Z,7.95
2016-03-10T03:04:31.593Z,7.97
2016-03-10T03:05:31.627Z,8.01
2016-03-10T03:06:31.661Z,7.98
2016-03-10T03:07:31.649Z,7.94
2016-03-10T03:08:31.666Z,8.08
2016-03-10T03:09:31.685Z,7.94
2016-03-10T03:10:31.702Z,8.08
2016-03-10T03:11:31.705Z,7.95
2016-03-10T03:12:31.740Z,7.97
2016-03-10T03:13:31.743Z,7.88
2016-03-10T03:14:31.760Z,8
2016-03-10T03:15:31.779Z,8.03
2016-03-10T03:16:31.813Z,7.97
2016-03-10T03:17:31.832Z,7.97
2016-03-10T03:18:31.818Z,7.97
2016-03-10T03:19:31.852Z,8.01
2016-03-10T03:20:31.871Z,7.91
2016-03-10T03:21:31.874Z,8
2016-03-10T03:22:31.923Z,8.01
2016-03-10T03:23:31.910Z,7.9
2016-03-10T03:24:31.928Z,7.94
2016-03-10T03:25:31.947Z,7.93
2016-03-10T03:26:31.965Z,7.91
2016-03-10T03:27:31.984Z,7.9
2016-03-10T03:28:31.986Z,7.91
2016-03-10T03:29:32.003Z,7.88
2016-03-10T03:30:32.038Z,7.98
2016-03-10T03:31:32.041Z,7.87
2016-03-10T03:32:32.059Z,7.9
2016-03-10T03:33:32.077Z,7.87
2016-03-10T03:34:32.096Z,7.91
2016-03-10T03:35:32.130Z,7.87
2016-03-10T03:36:32.148Z,7.95
2016-03-10T03:37:32.197Z,7.97
2016-03-10T03:38:32.152Z,7.91
2016-03-10T03:39:32.171Z,7.9
2016-03-10T03:40:32.190Z,7.97
2016-03-10T03:41:32.208Z,7.95
2016-03-10T03:42:32.226Z,7.95
2016-03-10T03:43:32.229Z,7.9
2016-03-10T03:44:32.278Z,7.94
2016-03-10T03:45:32.265Z,7.94
2016-03-10T03:46:32.284Z,7.87
2016-03-10T03:47:32.287Z,7.8
2016-03-10T03:48:32.320Z,7.9
2016-03-10T03:49:32.340Z,7.94
2016-03-10T03:50:32.357Z,7.93
2016-03-10T03:51:32.392Z,7.93
2016-03-10T03:52:32.378Z,7.85
2016-03-10T03:53:32.397Z,7.88
2016-03-10T03:54:32.415Z,7.94
2016-03-10T03:55:32.434Z,7.93
2016-03-10T03:56:32.436Z,7.95
2016-03-10T03:57:32.470Z,7.88
2016-03-10T03:58:32.488Z,7.94
2016-03-10T03:59:32.491Z,7.95
2016-03-10T04:00:32.509Z,7.83
2016-03-10T04:01:32.606Z,7.91
2016-03-10T04:02:32.546Z,7.93
2016-03-10T04:03:32.564Z,7.9
2016-03-10T04:04:32.583Z,7.9
2016-03-10T04:05:32.586Z,7.93
2016-03-10T04:06:32.635Z,7.91
2016-03-10T04:07:32.622Z,7.85
2016-03-10T04:08:32.640Z,7.91
2016-03-10T04:09:32.658Z,7.93
2016-03-10T04:10:32.677Z,7.85
2016-03-10T04:11:32.710Z,7.88
2016-03-10T04:12:32.713Z,7.85
2016-03-10T04:13:32.731Z,7.88
2016-03-10T04:14:32.735Z,7.83
2016-03-10T04:15:32.768Z,7.82
2016-03-10T04:16:32.787Z,7.8
2016-03-10T04:17:32.789Z,7.93
2016-03-10T04:18:32.808Z,7.85
2016-03-10T04:19:32.826Z,7.88
2016-03-10T04:20:32.845Z,7.83
2016-03-10T04:21:32.879Z,7.83
2016-03-10T04:22:32.882Z,7.88
2016-03-10T04:23:32.899Z,7.8
2016-03-10T04:24:32.902Z,7.82
2016-03-10T04:25:32.921Z,7.9
2016-03-10T04:26:32.939Z,7.87
2016-03-10T04:27:32.956Z,7.83
2016-03-10T04:28:32.959Z,7.8
2016-03-10T04:29:32.994Z,7.83
2016-03-10T04:30:33.028Z,7.77
2016-03-10T04:31:33.014Z,7.83
2016-03-10T04:32:33.033Z,7.76
2016-03-10T04:33:33.083Z,7.82
2016-03-10T04:34:33.070Z,7.79
2016-03-10T04:35:33.103Z,7.83
2016-03-10T04:36:33.105Z,7.8
2016-03-10T04:37:33.124Z,7.79
2016-03-10T04:38:33.127Z,7.8
2016-03-10T04:39:33.161Z,7.73
2016-03-10T04:40:33.163Z,7.8
2016-03-10T04:41:33.182Z,7.8
2016-03-10T04:42:33.215Z,7.73
2016-03-10T04:43:33.218Z,7.76
2016-03-10T04:44:33.237Z,7.8
2016-03-10T04:45:33.271Z,7.8
2016-03-10T04:46:33.257Z,7.79
2016-03-10T04:47:33.292Z,7.79
2016-03-10T04:48:33.295Z,7.82
2016-03-10T04:49:33.329Z,7.82
2016-03-10T04:50:33.346Z,7.77
2016-03-10T04:51:33.349Z,7.8
2016-03-10T04:52:33.383Z,7.82
2016-03-10T04:53:33.230Z,7.8
2016-03-10T04:54:33.420Z,7.85
2016-03-10T04:55:33.407Z,7.79
2016-03-10T04:56:33.425Z,7.82
2016-03-10T04:57:33.459Z,7.8
2016-03-10T04:58:33.461Z,7.75
2016-03-10T04:59:33.496Z,7.82
2016-03-10T05:00:33.514Z,7.73
2016-03-10T05:01:33.517Z,7.79
2016-03-10T05:02:33.566Z,7.83
2016-03-10T05:03:33.538Z,7.8
2016-03-10T05:04:33.572Z,7.77
2016-03-10T05:05:33.574Z,7.87
2016-03-10T05:06:33.608Z,7.82
2016-03-10T05:07:33.611Z,7.82
2016-03-10T05:08:33.630Z,7.77
2016-03-10T05:09:33.663Z,7.79
2016-03-10T05:10:33.650Z,7.77
2016-03-10T05:11:33.685Z,7.77
2016-03-10T05:12:33.688Z,7.82
2016-03-10T05:13:33.706Z,7.87
2016-03-10T05:14:33.740Z,7.83
2016-03-10T05:15:33.758Z,7.77
2016-03-10T05:16:33.760Z,7.79
2016-03-10T05:17:33.794Z,7.76
2016-03-10T05:18:33.782Z,7.82
2016-03-10T05:19:33.799Z,7.8
2016-03-10T05:20:33.818Z,7.73
2016-03-10T05:21:33.837Z,7.77
2016-03-10T05:22:33.870Z,7.8
2016-03-10T05:23:33.873Z,7.83
2016-03-10T05:24:33.892Z,7.76
2016-03-10T05:25:33.894Z,7.76
2016-03-10T05:26:33.912Z,7.73
2016-03-10T05:27:33.962Z,7.73
2016-03-10T05:28:33.949Z,7.76
2016-03-10T05:29:33.983Z,7.76
2016-03-10T05:30:33.986Z,7.8
2016-03-10T05:31:34.004Z,7.79
2016-03-10T05:32:34.022Z,7.79
2016-03-10T05:33:34.025Z,7.77
2016-03-10T05:34:34.058Z,7.77
2016-03-10T05:35:33.905Z,7.77
2016-03-10T05:36:34.095Z,7.82
2016-03-10T05:37:34.097Z,7.76
2016-03-10T05:38:34.116Z,7.82
2016-03-10T05:39:34.150Z,7.79
2016-03-10T05:40:34.152Z,7.77
2016-03-10T05:41:34.171Z,7.8
2016-03-10T05:42:34.174Z,7.82
2016-03-10T05:43:34.208Z,7.79
2016-03-10T05:44:34.227Z,7.76
2016-03-10T05:45:34.229Z,7.83
2016-03-10T05:46:34.247Z,7.82
2016-03-10T05:47:34.266Z,7.79
2016-03-10T05:48:34.269Z,7.82
2016-03-10T05:49:34.318Z,7.77
2016-03-10T05:50:34.305Z,7.79
2016-03-10T05:51:34.324Z,7.82
2016-03-10T05:52:34.357Z,7.76
2016-03-10T05:53:34.360Z,7.82
2016-03-10T05:54:34.378Z,7.77
2016-03-10T05:55:34.381Z,7.77
2016-03-10T05:56:34.399Z,7.76
2016-03-10T05:57:34.433Z,7.73
2016-03-10T05:58:34.436Z,7.82
2016-03-10T05:59:34.454Z,7.76
2016-03-10T06:00:34.472Z,7.76
2016-03-10T06:01:34.491Z,7.8
2016-03-10T06:02:34.508Z,7.73
2016-03-10T06:03:34.527Z,7.82
2016-03-10T06:04:34.530Z,7.77
2016-03-10T06:05:34.548Z,7.79
2016-03-10T06:06:34.565Z,7.76
2016-03-10T06:07:34.598Z,7.76
2016-03-10T06:08:34.617Z,7.83
2016-03-10T06:09:34.636Z,7.79
2016-03-10T06:10:34.639Z,7.79
2016-03-10T06:11:34.656Z,7.77
2016-03-10T06:12:34.658Z,7.76
2016-03-10T06:13:34.521Z,7.73
2016-03-10T06:14:34.695Z,7.75
2016-03-10T06:15:34.714Z,7.75
2016-03-10T06:16:34.732Z,7.75
2016-03-10T06:17:34.750Z,7.83
2016-03-10T06:18:34.769Z,7.82
2016-03-10T06:19:34.788Z,7.79
2016-03-10T06:20:34.805Z,7.76
2016-03-10T06:21:34.808Z,7.8
2016-03-10T06:22:34.841Z,7.82
2016-03-10T06:23:34.860Z,7.76
2016-03-10T06:24:34.879Z,7.79
2016-03-10T06:25:34.897Z,7.79
2016-03-10T06:26:34.899Z,7.77
2016-03-10T06:27:34.902Z,7.79
2016-03-10T06:28:34.951Z,7.79
2016-03-10T06:29:34.970Z,7.77
2016-03-10T06:30:34.942Z,7.76
2016-03-10T06:31:35.007Z,7.82
2016-03-10T06:32:34.993Z,7.77
2016-03-10T06:33:35.013Z,7.76
2016-03-10T06:34:35.031Z,7.79
2016-03-10T06:35:35.049Z,7.82
2016-03-10T06:36:35.067Z,7.77
2016-03-10T06:37:35.070Z,7.76
2016-03-10T06:38:35.088Z,7.79
2016-03-10T06:39:35.092Z,7.79
2016-03-10T06:40:35.125Z,7.8
2016-03-10T06:41:35.159Z,7.9
2016-03-10T06:42:35.145Z,7.79
2016-03-10T06:43:35.164Z,7.75
2016-03-10T06:44:35.183Z,7.82
2016-03-10T06:45:35.217Z,7.82
2016-03-10T06:46:35.219Z,7.8
2016-03-10T06:47:35.253Z,7.82
2016-03-10T06:48:35.256Z,7.83
2016-03-10T06:49:35.275Z,7.82
2016-03-10T06:50:35.292Z,7.88
2016-03-10T06:51:35.294Z,7.91
2016-03-10T06:52:35.314Z,7.85
2016-03-10T06:53:35.332Z,7.98
2016-03-10T06:54:35.350Z,7.83
2016-03-10T06:55:35.368Z,7.93
2016-03-10T06:56:35.387Z,7.93
2016-03-10T06:57:35.404Z,7.9
2016-03-10T06:58:35.424Z,7.98
2016-03-10T06:59:35.426Z,8.01
2016-03-10T07:00:35.710Z,7.93
2016-03-10T07:01:35.651Z,7.94
2016-03-10T07:02:35.482Z,7.97
2016-03-10T07:03:35.546Z,7.93
2016-03-10T07:04:35.721Z,7.91
2016-03-10T07:05:35.801Z,8.03
2016-03-10T07:06:35.742Z,7.98
2016-03-10T07:07:35.760Z,7.91
2016-03-10T07:08:35.810Z,8
2016-03-10T07:09:35.843Z,8.01
2016-03-10T07:10:35.861Z,7.91
2016-03-10T07:11:35.864Z,7.9
2016-03-10T07:12:35.898Z,7.97
2016-03-10T07:13:35.964Z,8.01
2016-03-10T07:14:35.935Z,8.01
2016-03-10T07:15:35.907Z,7.85
2016-03-10T07:16:35.956Z,7.9
2016-03-10T07:17:36.022Z,8.01
2016-03-10T07:18:36.008Z,8.05
2016-03-10T07:19:36.011Z,7.98
2016-03-10T07:20:36.060Z,8.03
2016-03-10T07:21:36.064Z,7.95
2016-03-10T07:22:36.082Z,7.98
2016-03-10T07:23:36.069Z,8.06
2016-03-10T07:24:36.118Z,7.95
2016-03-10T07:25:36.090Z,7.95
2016-03-10T07:26:36.124Z,7.97
2016-03-10T07:27:36.110Z,8
2016-03-10T07:28:36.129Z,8.01
2016-03-10T07:29:36.163Z,8.05
2016-03-10T07:30:36.166Z,8
2016-03-10T07:31:36.184Z,8.05
2016-03-10T07:32:36.218Z,8.05
2016-03-10T07:33:36.236Z,8.03
2016-03-10T07:34:36.161Z,8.01
2016-03-10T07:35:36.304Z,8.1
2016-03-10T07:36:36.307Z,8.1
2016-03-10T07:37:36.293Z,8.08
2016-03-10T07:38:36.375Z,8.08
2016-03-10T07:39:36.346Z,8.13
2016-03-10T07:40:36.380Z,8.01
2016-03-10T07:41:36.445Z,8.05
2016-03-10T07:42:36.386Z,8.08
2016-03-10T07:43:36.404Z,8.1
2016-03-10T07:44:36.391Z,8.12
2016-03-10T07:45:36.456Z,8.1
2016-03-10T07:46:36.381Z,8.18
2016-03-10T07:47:36.487Z,8.16
2016-03-10T07:48:36.482Z,8.18
2016-03-10T07:49:36.417Z,8.1
2016-03-10T07:50:36.507Z,8.19
2016-03-10T07:51:36.504Z,8.18
2016-03-10T07:52:36.471Z,8.2
2016-03-10T07:53:36.394Z,8.16
2016-03-10T07:54:36.457Z,8.13
2016-03-10T07:55:36.550Z,8.2
2016-03-10T07:56:36.442Z,8.16
2016-03-10T07:57:36.506Z,8.18
2016-03-10T07:58:36.446Z,8.24
2016-03-10T07:59:36.603Z,8.24
2016-03-10T08:00:36.527Z,8.27
2016-03-10T08:01:36.654Z,8.27
2016-03-10T08:02:36.609Z,8.27
2016-03-10T08:03:36.690Z,8.23
2016-03-10T08:04:36.755Z,8.27
2016-03-10T08:05:36.710Z,8.19
2016-03-10T08:06:36.729Z,8.34
2016-03-10T08:07:36.746Z,8.3
2016-03-10T08:08:36.795Z,8.31
2016-03-10T08:09:36.736Z,8.19
2016-03-10T08:10:36.848Z,8.3
2016-03-10T08:11:36.804Z,8.27
2016-03-10T08:12:36.837Z,8.37
2016-03-10T08:13:36.856Z,8.36
2016-03-10T08:14:36.889Z,8.34
2016-03-10T08:15:36.893Z,8.3
2016-03-10T08:16:36.833Z,8.33
2016-03-10T08:17:36.976Z,8.33
2016-03-10T08:18:36.948Z,8.37
2016-03-10T08:19:36.981Z,8.34
2016-03-10T08:20:36.969Z,8.31
2016-03-10T08:21:36.846Z,8.31
2016-03-10T08:22:37.037Z,8.38
2016-03-10T08:23:37.024Z,8.36
2016-03-10T08:24:37.027Z,8.33
2016-03-10T08:25:36.232Z,8.36
2016-03-10T08:26:37.047Z,8.37
2016-03-10T08:27:37.082Z,8.33
2016-03-10T08:28:36.896Z,8.37
2016-03-10T08:29:37.133Z,8.31
2016-03-10T08:30:37.121Z,8.34
2016-03-10T08:31:36.921Z,8.37
2016-03-10T08:32:37.157Z,8.46
2016-03-10T08:33:37.191Z,8.44
2016-03-10T08:34:37.210Z,8.38
2016-03-10T08:35:37.212Z,8.41
2016-03-10T08:36:37.215Z,8.37
2016-03-10T08:37:37.264Z,8.37
2016-03-10T08:38:37.252Z,8.45
2016-03-10T08:39:37.285Z,8.44
2016-03-10T08:40:37.304Z,8.52
2016-03-10T08:41:37.229Z,8.51
2016-03-10T08:42:37.325Z,8.51
2016-03-10T08:43:37.312Z,8.51
2016-03-10T08:44:37.378Z,8.49
2016-03-10T08:45:37.334Z,8.48
2016-03-10T08:46:37.226Z,8.51
2016-03-10T08:47:37.353Z,8.53
2016-03-10T08:48:37.450Z,8.52
2016-03-10T08:49:37.453Z,8.49
2016-03-10T08:50:37.455Z,8.56
2016-03-10T08:51:37.458Z,8.53
2016-03-10T08:52:37.539Z,8.51
2016-03-10T08:53:37.464Z,8.51
2016-03-10T08:54:37.358Z,8.55
2016-03-10T08:55:37.547Z,8.48
2016-03-10T08:56:37.535Z,8.63
2016-03-10T08:57:37.538Z,8.56
2016-03-10T08:58:37.571Z,8.64
2016-03-10T08:59:37.573Z,8.6
2016-03-10T09:00:37.591Z,8.56
2016-03-10T09:01:37.626Z,8.7
2016-03-10T09:02:37.691Z,8.69
2016-03-10T09:03:37.678Z,8.69
2016-03-10T09:04:37.682Z,8.71
2016-03-10T09:05:37.730Z,8.74
2016-03-10T09:06:37.698Z,8.74
2016-03-10T09:07:37.716Z,8.7
2016-03-10T09:08:37.781Z,8.71
2016-03-10T09:09:37.738Z,8.69
2016-03-10T09:10:37.771Z,8.79
2016-03-10T09:11:37.821Z,8.78
2016-03-10T09:12:37.855Z,8.66
2016-03-10T09:13:37.717Z,8.81
2016-03-10T09:14:37.735Z,8.76
2016-03-10T09:15:37.862Z,8.76
2016-03-10T09:16:37.866Z,8.76
2016-03-10T09:17:37.915Z,8.76
2016-03-10T09:18:37.965Z,8.87
2016-03-10T09:19:37.935Z,8.73
2016-03-10T09:20:38.001Z,8.76
2016-03-10T09:21:38.004Z,8.84
2016-03-10T09:22:37.975Z,8.84
2016-03-10T09:23:37.979Z,8.82
2016-03-10T09:24:38.028Z,8.73
2016-03-10T09:25:38.061Z,8.71
2016-03-10T09:26:38.064Z,8.76
2016-03-10T09:27:38.020Z,8.79
2016-03-10T09:28:38.070Z,8.78
2016-03-10T09:29:38.135Z,8.79
2016-03-10T09:30:38.154Z,8.79
2016-03-10T09:31:38.172Z,8.91
2016-03-10T09:32:38.174Z,8.89
2016-03-10T09:33:38.239Z,8.88
2016-03-10T09:34:38.211Z,8.87
2016-03-10T09:35:38.213Z,8.94
2016-03-10T09:36:38.231Z,8.95
2016-03-10T09:37:38.266Z,8.85
2016-03-10T09:38:38.269Z,8.95
2016-03-10T09:39:38.286Z,9
2016-03-10T09:40:38.306Z,8.94
2016-03-10T09:41:38.339Z,8.99
2016-03-10T09:42:38.358Z,8.97
2016-03-10T09:43:38.329Z,9
2016-03-10T09:44:38.363Z,8.99
2016-03-10T09:45:38.381Z,9
2016-03-10T09:46:38.305Z,8.97
2016-03-10T09:47:38.402Z,9.03
2016-03-10T09:48:38.483Z,9.04
2016-03-10T09:49:38.423Z,9.03
2016-03-10T09:50:38.462Z,9.06
2016-03-10T09:51:39.043Z,9.06
2016-03-10T09:52:38.499Z,8.99
2016-03-10T09:53:38.485Z,9.04
2016-03-10T09:54:38.519Z,9.18
2016-03-10T09:55:38.570Z,9.11
2016-03-10T09:56:38.587Z,9.13
2016-03-10T09:57:38.590Z,9.16
2016-03-10T09:58:38.624Z,9.19
2016-03-10T09:59:38.627Z,9.23
2016-03-10T10:00:38.676Z,9.22
2016-03-10T10:01:38.725Z,9.29
2016-03-10T10:02:38.635Z,9.28
2016-03-10T10:03:38.716Z,9.37
2016-03-10T10:04:38.687Z,9.28
2016-03-10T10:05:38.736Z,9.36
2016-03-10T10:06:38.692Z,9.37
2016-03-10T10:07:38.820Z,9.4
2016-03-10T10:08:38.791Z,9.41
2016-03-10T10:09:38.794Z,9.46
2016-03-10T10:10:38.797Z,9.44
2016-03-10T10:11:38.846Z,9.41
2016-03-10T10:12:38.818Z,9.43
2016-03-10T10:13:38.836Z,9.48
2016-03-10T10:14:38.948Z,9.43
2016-03-10T10:15:38.888Z,9.43
2016-03-10T10:16:38.843Z,9.43
2016-03-10T10:17:38.879Z,9.44
2016-03-10T10:18:38.912Z,9.4
2016-03-10T10:19:38.915Z,9.41
2016-03-10T10:20:38.965Z,9.43
2016-03-10T10:21:38.920Z,9.54
2016-03-10T10:22:39.001Z,9.51
2016-03-10T10:23:39.098Z,9.47
2016-03-10T10:24:39.116Z,9.39
2016-03-10T10:25:39.025Z,9.51
2016-03-10T10:26:38.839Z,9.5
2016-03-10T10:27:38.858Z,9.54
2016-03-10T10:28:38.876Z,9.5
2016-03-10T10:29:38.895Z,9.55
2016-03-10T10:30:38.914Z,9.51
2016-03-10T10:31:38.947Z,9.54
2016-03-10T10:32:38.934Z,9.47
2016-03-10T10:33:38.968Z,9.55
2016-03-10T10:34:38.970Z,9.59
2016-03-10T10:35:39.005Z,9.56
2016-03-10T10:36:39.023Z,9.54
2016-03-10T10:37:39.025Z,9.51
2016-03-10T10:38:39.060Z,9.58
2016-03-10T10:39:39.063Z,9.48
2016-03-10T10:40:39.096Z,9.47
2016-03-10T10:41:39.099Z,9.46
2016-03-10T10:42:39.117Z,9.56
2016-03-10T10:43:39.151Z,9.48
2016-03-10T10:44:39.154Z,9.47
2016-03-10T10:45:39.172Z,9.48
2016-03-10T10:46:39.190Z,9.47
2016-03-10T10:47:39.210Z,9.54
2016-03-10T10:48:39.227Z,9.55
2016-03-10T10:49:39.246Z,9.55
2016-03-10T10:50:39.263Z,9.54
2016-03-10T10:51:39.282Z,9.58
2016-03-10T10:52:39.301Z,9.54
2016-03-10T10:53:39.334Z,9.62
2016-03-10T10:54:39.337Z,9.55
2016-03-10T10:55:39.371Z,9.54
2016-03-10T10:56:39.374Z,9.59
2016-03-10T10:57:39.392Z,9.59
2016-03-10T10:58:39.410Z,9.55
2016-03-10T10:59:39.428Z,9.59
2016-03-10T11:00:39.447Z,9.55
2016-03-10T11:01:39.450Z,9.58
2016-03-10T11:02:39.484Z,9.55
2016-03-10T11:03:39.503Z,9.55
2016-03-10T11:04:39.520Z,9.47
2016-03-10T11:05:39.523Z,9.47
2016-03-10T11:06:39.556Z,9.59
2016-03-10T11:07:39.559Z,9.54
2016-03-10T11:08:39.577Z,9.47
2016-03-10T11:09:39.628Z,9.59
2016-03-10T11:10:39.630Z,9.55
2016-03-10T11:11:39.632Z,9.55
2016-03-10T11:12:39.791Z,9.61
2016-03-10T11:13:39.669Z,9.47
2016-03-10T11:14:39.688Z,9.5
2016-03-10T11:15:39.706Z,9.48
2016-03-10T11:16:39.724Z,9.61
2016-03-10T11:17:39.743Z,9.55
2016-03-10T11:18:39.808Z,9.54
2016-03-10T11:19:39.779Z,9.55
2016-03-10T11:20:39.798Z,9.61
2016-03-10T11:21:39.800Z,9.68
2016-03-10T11:22:39.849Z,9.69
2016-03-10T11:23:39.868Z,9.69
2016-03-10T11:24:39.871Z,9.73
2016-03-10T11:25:39.889Z,9.66
2016-03-10T11:26:39.907Z,9.76
2016-03-10T11:27:39.926Z,9.68
2016-03-10T11:28:39.945Z,9.66
2016-03-10T11:29:39.962Z,9.64
2016-03-10T11:30:39.981Z,9.72
2016-03-10T11:31:39.999Z,9.77
2016-03-10T11:32:40.033Z,9.66
2016-03-10T11:33:40.036Z,9.8
2016-03-10T11:34:40.039Z,9.76
2016-03-10T11:35:40.088Z,9.64
2016-03-10T11:36:40.091Z,9.77
2016-03-10T11:37:40.109Z,9.66
2016-03-10T11:38:40.128Z,9.76
2016-03-10T11:39:40.145Z,9.65
2016-03-10T11:40:40.164Z,9.66
2016-03-10T11:41:40.166Z,9.76
2016-03-10T11:42:40.200Z,9.77
2016-03-10T11:43:40.203Z,9.72
2016-03-10T11:44:40.221Z,9.82
2016-03-10T11:45:40.271Z,9.79
2016-03-10T11:46:40.274Z,9.79
2016-03-10T11:47:40.291Z,9.83
2016-03-10T11:48:40.310Z,9.79
2016-03-10T11:49:40.313Z,9.83
2016-03-10T11:50:40.332Z,9.76
2016-03-10T11:51:40.349Z,9.84
2016-03-10T11:52:40.368Z,9.73
2016-03-10T11:53:40.387Z,9.74
2016-03-10T11:54:40.405Z,9.76
2016-03-10T11:55:40.423Z,9.73
2016-03-10T11:56:40.426Z,9.74
2016-03-10T11:57:40.460Z,9.74
2016-03-10T11:58:40.479Z,9.74
2016-03-10T11:59:40.496Z,9.76
2016-03-10T12:00:40.515Z,9.79
2016-03-10T12:01:40.534Z,9.8
2016-03-10T12:02:40.551Z,9.77
2016-03-10T12:03:40.570Z,9.83
2016-03-10T12:04:40.572Z,9.77
2016-03-10T12:05:40.623Z,9.79
2016-03-10T12:06:40.624Z,9.89
2016-03-10T12:07:40.643Z,9.84
2016-03-10T12:08:40.662Z,9.77
2016-03-10T12:09:40.663Z,9.82
2016-03-10T12:10:40.698Z,9.84
2016-03-10T12:11:40.544Z,9.8
2016-03-10T12:12:40.718Z,9.84
2016-03-10T12:13:40.752Z,9.86
2016-03-10T12:14:40.755Z,9.82
2016-03-10T12:15:40.789Z,9.87
2016-03-10T12:16:40.791Z,9.83
2016-03-10T12:17:40.827Z,9.82
2016-03-10T12:18:40.829Z,9.79
2016-03-10T12:19:40.847Z,9.83
2016-03-10T12:20:40.897Z,9.79
2016-03-10T12:21:40.883Z,9.82
2016-03-10T12:22:40.933Z,9.84
2016-03-10T12:23:40.921Z,9.74
2016-03-10T12:24:40.938Z,9.79
2016-03-10T12:25:40.957Z,9.82
2016-03-10T12:26:40.976Z,9.86
2016-03-10T12:27:40.993Z,9.84
2016-03-10T12:28:41.168Z,9.8
2016-03-10T12:29:41.015Z,9.82
2016-03-10T12:30:41.049Z,9.84
2016-03-10T12:31:41.098Z,9.74
2016-03-10T12:32:41.085Z,9.72
2016-03-10T12:33:41.104Z,9.79
2016-03-10T12:34:41.122Z,9.84
2016-03-10T12:35:41.140Z,9.76
2016-03-10T12:36:41.159Z,9.74
2016-03-10T12:37:41.161Z,9.77
2016-03-10T12:38:41.226Z,9.69
2016-03-10T12:39:41.214Z,9.73
2016-03-10T12:40:41.248Z,9.76
2016-03-10T12:41:41.250Z,9.62
2016-03-10T12:42:41.269Z,9.72
2016-03-10T12:43:41.287Z,9.84
2016-03-10T12:44:41.305Z,9.8
2016-03-10T12:45:41.323Z,9.84
2016-03-10T12:46:41.342Z,9.65
2016-03-10T12:47:41.344Z,9.8
2016-03-10T12:48:41.378Z,9.65
2016-03-10T12:49:41.396Z,9.65
2016-03-10T12:50:41.415Z,9.62
2016-03-10T12:51:41.418Z,9.76
2016-03-10T12:52:41.452Z,9.74
2016-03-10T12:53:41.455Z,9.73
2016-03-10T12:54:41.488Z,9.72
2016-03-10T12:55:41.491Z,9.76
2016-03-10T12:56:41.524Z,9.72
2016-03-10T12:57:41.543Z,9.76
2016-03-10T12:58:41.545Z,9.74
2016-03-10T12:59:41.610Z,9.73
2016-03-10T13:00:41.582Z,9.76
2016-03-10T13:01:41.616Z,9.8
2016-03-10T13:02:41.619Z,9.79
2016-03-10T13:03:41.638Z,9.82
2016-03-10T13:04:41.671Z,9.77
2016-03-10T13:05:41.674Z,9.8
2016-03-10T13:06:41.708Z,9.82
2016-03-10T13:07:41.711Z,9.8
2016-03-10T13:08:41.729Z,9.82
2016-03-10T13:09:41.748Z,9.82
2016-03-10T13:10:41.765Z,9.76
2016-03-10T13:11:41.800Z,9.86
2016-03-10T13:12:41.802Z,9.86
2016-03-10T13:13:41.827Z,9.82
2016-03-10T13:14:41.877Z,9.82
2016-03-10T13:15:41.896Z,9.84
2016-03-10T13:16:41.883Z,9.89
2016-03-10T13:17:41.901Z,9.83
2016-03-10T13:18:41.919Z,9.87
2016-03-10T13:19:41.938Z,9.77
2016-03-10T13:20:41.971Z,9.86
2016-03-10T13:21:41.990Z,9.8
2016-03-10T13:22:41.977Z,9.8